Terminal Aerodrome Forecast
Issued by NWS Greer, SC

Home | Current Version | Previous Version | Text Only | Print | Product List | Glossary On
Versions: 1 2 3 4 5 6 7 8 9 10 11 12 13 14 15 16 17 18 19 20 21 22 23 24
000
FTUS42 KGSP 261124
TAFGSP
TAF
KGSP 261124Z 2612/2712 22011KT P6SM VCSH BKN045
     FM261300 24014G23KT P6SM VCSH BKN050
     FM261500 24020G30KT P6SM BKN100
     FM261700 27025G35KT P6SM SCT100
     FM270000 28012G20KT P6SM SKC
     FM270400 29009KT P6SM SKC=

USA.gov is the U.S. government's official web portal to all federal, state and local government web resources and services.